Time;durP1;ratioP1;P1;durP2;ratioP2;P2;SDS_P1;SDS_P2;PMS_P1;PMS_P2;Temp;Humidity;BMP_temperature;BMP_pressure;BME280_temperature;BME280_humidity;BME280_pressure;Samples;Min_cycle;Max_cycle;Signal;HPM_P1;HPM_P2
2023/10/12 00:05:06;;;;;;;0.43;0.43;;;;;;;20.30;49.79;100440.28;15615788;28;20046;-51
2023/10/12 00:12:44;;;;;;;0.90;0.47;;;;;;;20.28;49.36;100444.38;15616389;28;20310;-51
2023/10/12 00:20:24;;;;;;;0.20;0.20;;;;;;;20.46;49.27;100443.72;15615489;28;20042;-48
2023/10/12 00:28:01;;;;;;;9.68;1.90;;;;;;;20.53;49.04;100441.53;15598569;28;20073;-49
2023/10/12 00:35:37;;;;;;;0.32;0.32;;;;;;;20.32;49.14;100442.72;15613982;28;20041;-50
2023/10/12 00:43:14;;;;;;;0.10;0.10;;;;;;;20.07;49.90;100444.50;15613690;28;20048;-50
2023/10/12 00:50:50;;;;;;;0.95;0.75;;;;;;;20.00;49.70;100441.25;15613645;28;20069;-47
2023/10/12 00:58:25;;;;;;;0.30;0.30;;;;;;;20.19;48.81;100436.00;15613779;28;20042;-49
2023/10/12 01:14:05;;;;;;;0.45;0.38;;;;;;;20.22;49.39;100440.88;15612593;28;20458;-45
2023/10/12 01:21:44;;;;;;;0.00;0.00;;;;;;;20.13;49.64;100440.63;15613593;28;20522;-50
2023/10/12 01:29:20;;;;;;;5.13;1.33;;;;;;;20.28;49.82;100437.00;15611597;28;20040;-50
2023/10/12 01:36:58;;;;;;;1.00;0.60;;;;;;;20.02;49.95;100430.09;15610945;28;20125;-51
2023/10/12 01:44:32;;;;;;;0.08;0.08;;;;;;;20.23;50.02;100425.31;15613257;28;20107;-49
2023/10/12 01:52:08;;;;;;;0.52;0.52;;;;;;;19.85;50.56;100425.78;15610499;28;20048;-47
2023/10/12 01:59:42;;;;;;;1.35;0.30;;;;;;;19.75;50.94;100427.75;15610523;28;20068;-49
2023/10/12 02:07:17;;;;;;;1.35;0.52;;;;;;;19.51;51.53;100427.56;15609979;28;20129;-49
2023/10/12 02:14:52;;;;;;;0.00;0.00;;;;;;;19.45;52.18;100442.28;15610298;28;20038;-51
2023/10/12 02:22:29;;;;;;;0.00;0.00;;;;;;;19.53;52.24;100436.25;15609655;28;20131;-47
2023/10/12 02:30:06;;;;;;;2.40;0.65;;;;;;;19.49;51.87;100444.16;15609333;28;20288;-49
2023/10/12 02:37:42;;;;;;;0.00;0.00;;;;;;;19.52;51.95;100446.31;15609446;28;20045;-50
2023/10/12 02:45:19;;;;;;;0.00;0.00;;;;;;;19.47;52.67;100459.94;15618339;28;20034;-49
2023/10/12 02:52:53;;;;;;;0.65;0.55;;;;;;;19.68;52.20;100466.19;15620609;28;20128;-48
2023/10/12 03:00:35;;;;;;;1.17;0.22;;;;;;;19.51;53.26;100473.81;15620066;28;20067;-49
2023/10/12 03:08:14;;;;;;;0.67;0.53;;;;;;;19.27;55.73;100476.34;15618727;28;20579;-48
2023/10/12 03:15:56;;;;;;;0.10;0.10;;;;;;;19.41;56.99;100482.03;15618790;28;20370;-49
2023/10/12 03:23:34;;;;;;;3.67;0.77;;;;;;;19.36;57.77;100485.56;15618323;28;20053;-48
2023/10/12 03:31:21;;;;;;;0.10;0.08;;;;;;;19.30;58.05;100501.06;15618656;28;20042;-47
2023/10/12 03:39:13;;;;;;;0.03;0.03;;;;;;;18.61;59.86;100512.47;15618821;28;20063;-48
2023/10/12 03:46:57;;;;;;;0.25;0.13;;;;;;;17.92;61.96;100518.19;15617957;28;20046;-51
2023/10/12 03:54:34;;;;;;;1.83;1.05;;;;;;;17.58;65.17;100538.34;15617577;28;20412;-47
2023/10/12 04:02:13;;;;;;;7.05;0.80;;;;;;;17.70;67.24;100548.19;15617000;28;20049;-48
2023/10/12 04:09:54;;;;;;;0.30;0.30;;;;;;;17.25;69.44;100541.34;15615597;28;20480;-49
2023/10/12 04:17:47;;;;;;;1.42;0.22;;;;;;;17.08;71.31;100566.72;15614121;28;20053;-49
2023/10/12 04:25:32;;;;;;;0.10;0.10;;;;;;;16.92;72.92;100555.97;15616280;28;20045;-49
2023/10/12 04:33:17;;;;;;;0.47;0.32;;;;;;;16.67;75.53;100560.03;15615033;28;20120;-46
2023/10/12 04:48:44;;;;;;;0.55;0.45;;;;;;;16.42;77.14;100573.31;15614454;28;20046;-49
2023/10/12 04:56:19;;;;;;;0.10;0.08;;;;;;;16.59;75.84;100580.28;15614295;28;20108;-48
2023/10/12 05:04:08;;;;;;;0.08;0.08;;;;;;;16.80;75.83;100585.97;15611236;28;20055;-49
2023/10/12 05:11:42;;;;;;;4.90;0.47;;;;;;;16.67;76.66;100608.81;15611081;28;20400;-48
2023/10/12 05:19:16;;;;;;;1.20;0.75;;;;;;;16.83;77.16;100615.25;15610246;28;20300;-51
2023/10/12 05:26:54;;;;;;;0.32;0.13;;;;;;;16.98;76.43;100609.19;15612336;28;20136;-49
2023/10/12 05:34:44;;;;;;;0.32;0.20;;;;;;;16.76;77.03;100612.75;15616995;28;20053;-49
2023/10/12 05:42:22;;;;;;;0.85;0.28;;;;;;;16.55;78.37;100617.09;15612621;28;20523;-54
2023/10/12 05:49:57;;;;;;;1.75;0.82;;;;;;;16.41;78.11;100612.28;15608291;28;20443;-50
2023/10/12 05:57:31;;;;;;;0.75;0.65;;;;;;;16.32;78.66;100609.22;15611833;28;20307;-49
2023/10/12 06:05:07;;;;;;;1.20;0.73;;;;;;;15.99;80.32;100618.22;15611697;28;20124;-50
2023/10/12 06:12:42;;;;;;;0.65;0.52;;;;;;;15.57;81.57;100637.59;15610504;28;20130;-49
2023/10/12 06:20:30;;;;;;;0.70;0.70;;;;;;;15.84;81.29;100639.66;15619925;28;20099;-49
2023/10/12 06:28:14;;;;;;;1.02;0.88;;;;;;;15.24;83.68;100662.72;15623100;28;20049;-50
2023/10/12 06:36:00;;;;;;;0.43;0.43;;;;;;;15.23;83.74;100639.44;15621523;28;20129;-50
2023/10/12 06:51:28;;;;;;;0.37;0.33;;;;;;;15.28;83.84;100696.31;15621475;28;20053;-49
2023/10/12 06:59:10;;;;;;;0.28;0.28;;;;;;;15.24;84.32;100717.59;15620759;28;20041;-50
2023/10/12 07:06:56;;;;;;;0.20;0.20;;;;;;;15.12;85.09;100749.28;15619109;28;20076;-47
2023/10/12 07:14:36;;;;;;;0.00;0.00;;;;;;;15.55;83.66;100748.75;15619252;28;20072;-51
2023/10/12 07:22:15;;;;;;;0.13;0.13;;;;;;;15.43;83.84;100772.31;15619681;28;20140;-48
2023/10/12 07:30:02;;;;;;;1.27;0.90;;;;;;;15.46;84.45;100788.09;15618781;28;20049;-47
2023/10/12 07:37:41;;;;;;;2.08;0.82;;;;;;;15.75;83.33;100772.69;15618987;28;20049;-50
2023/10/12 07:45:16;;;;;;;0.05;0.05;;;;;;;15.48;83.87;100780.56;15619853;28;20052;-49
2023/10/12 07:52:53;;;;;;;0.20;0.20;;;;;;;15.37;84.94;100794.13;15617339;28;20052;-47
2023/10/12 08:00:34;;;;;;;0.63;0.47;;;;;;;15.21;85.05;100801.13;15618570;28;20095;-47
2023/10/12 08:08:16;;;;;;;0.73;0.43;;;;;;;15.32;84.50;100806.47;15616852;28;20059;-48
2023/10/12 08:15:55;;;;;;;0.68;0.55;;;;;;;15.67;83.61;100815.56;15598874;28;20059;-48
2023/10/12 08:23:30;;;;;;;0.00;0.00;;;;;;;15.12;80.80;100875.56;15616019;28;20168;-49
2023/10/12 08:31:15;;;;;;;0.10;0.10;;;;;;;13.82;79.91;100903.34;15616202;28;20046;-46
2023/10/12 08:38:53;;;;;;;0.98;0.95;;;;;;;13.85;79.70;100922.59;15614924;28;20095;-46
2023/10/12 08:54:17;;;;;;;0.00;0.00;;;;;;;13.39;79.06;100948.25;15611062;28;20060;-47
2023/10/12 09:01:51;;;;;;;0.00;0.00;;;;;;;13.20;79.39;100958.16;15614780;28;20041;-45
2023/10/12 09:17:30;;;;;;;0.00;0.00;;;;;;;13.85;77.17;100962.22;15612552;28;20063;-49
2023/10/12 09:25:05;;;;;;;0.00;0.00;;;;;;;14.34;76.36;100961.19;15612813;28;20412;-48
2023/10/12 09:32:56;;;;;;;0.00;0.00;;;;;;;14.35;76.37;100972.78;15610593;28;20480;-46
2023/10/12 09:40:35;;;;;;;4.83;0.73;;;;;;;14.03;77.11;100981.09;15611180;28;20301;-46
2023/10/12 09:48:19;;;;;;;0.00;0.00;;;;;;;14.41;76.60;100988.06;15610402;28;20042;-45
2023/10/12 09:56:11;;;;;;;0.17;0.10;;;;;;;14.58;75.70;100985.59;15622289;28;20045;-45
2023/10/12 10:03:48;;;;;;;0.00;0.00;;;;;;;14.81;75.29;100988.34;15621068;28;20358;-50
2023/10/12 10:11:26;;;;;;;3.72;1.35;;;;;;;13.93;76.81;100978.94;15623237;28;20052;-45
2023/10/12 10:19:13;;;;;;;0.38;0.38;;;;;;;14.54;76.54;100977.94;15621691;28;20046;-49
2023/10/12 10:26:48;;;;;;;0.00;0.00;;;;;;;14.74;75.33;100980.34;15619697;28;20064;-46
2023/10/12 10:34:25;;;;;;;0.00;0.00;;;;;;;14.54;75.51;100977.09;15621311;28;20045;-47
2023/10/12 10:42:04;;;;;;;0.85;0.63;;;;;;;14.46;76.54;100993.63;15620413;28;20100;-47
2023/10/12 10:49:39;;;;;;;2.05;0.95;;;;;;;14.34;76.59;100984.66;15620266;28;20511;-48
2023/10/12 10:57:16;;;;;;;0.00;0.00;;;;;;;14.66;74.52;100977.16;15620150;28;20073;-45
2023/10/12 11:04:55;;;;;;;0.00;0.00;;;;;;;14.43;74.77;100985.97;15619160;28;20132;-48
2023/10/12 11:12:31;;;;;;;4.68;0.43;;;;;;;14.76;75.77;100985.50;15619093;28;20045;-50
2023/10/12 11:20:08;;;;;;;0.00;0.00;;;;;;;14.97;75.83;100976.88;15617703;28;20121;-46
2023/10/12 11:27:43;;;;;;;0.00;0.00;;;;;;;15.30;73.27;100979.00;15617971;28;20519;-49
2023/10/12 11:35:17;;;;;;;;;;;;;;;15.19;73.96;100981.69;15616759;28;20081;-50
2023/10/12 11:42:53;;;;;;;2.13;1.45;;;;;;;15.30;70.84;100970.88;15617027;28;19920;-45
2023/10/12 11:50:34;;;;;;;1.25;0.65;;;;;;;15.57;71.31;100973.06;15616864;28;20076;-47
2023/10/12 11:58:07;;;;;;;0.90;0.90;;;;;;;15.48;72.12;100977.19;15615894;28;20087;-45
2023/10/12 12:05:42;;;;;;;;;;;;;;;15.40;71.70;100981.09;15616002;28;20120;-47
2023/10/12 12:13:16;;;;;;;0.00;0.00;;;;;;;15.81;71.71;100977.44;15614994;28;20468;-47
2023/10/12 12:20:52;;;;;;;0.57;0.40;;;;;;;15.84;70.52;100973.41;15613995;28;20038;-53
2023/10/12 12:28:31;;;;;;;0.35;0.35;;;;;;;15.06;72.19;100985.44;15616000;28;20077;-50
2023/10/12 12:36:10;;;;;;;0.00;0.00;;;;;;;15.33;69.58;100980.38;15615050;28;20113;-46
2023/10/12 12:43:43;;;;;;;0.43;0.35;;;;;;;15.23;72.17;100978.28;15614682;28;20057;-47
2023/10/12 12:51:17;;;;;;;0.00;0.00;;;;;;;15.59;69.68;100983.69;15596169;28;20055;-46
2023/10/12 12:58:53;;;;;;;0.20;0.15;;;;;;;15.80;69.34;100986.59;15613192;28;20046;-47
2023/10/12 13:06:28;;;;;;;0.00;0.00;;;;;;;15.32;71.04;101001.22;15610846;28;20124;-49
2023/10/12 13:14:01;;;;;;;3.25;1.77;;;;;;;15.90;70.20;100993.28;15611372;28;20361;-50
2023/10/12 13:21:41;;;;;;;6.45;1.77;;;;;;;15.50;69.51;100994.03;15611465;28;20041;-49
2023/10/12 13:29:14;;;;;;;0.13;0.05;;;;;;;15.89;68.58;100995.16;15611175;28;20106;-51
2023/10/12 13:36:49;;;;;;;;;;;;;;;15.33;70.04;100993.91;15610989;28;20049;-49
2023/10/12 13:44:25;;;;;;;0.43;0.30;;;;;;;15.58;70.18;100990.97;15611058;28;19924;-46
2023/10/12 13:52:03;;;;;;;0.00;0.00;;;;;;;15.65;70.38;100998.97;15610647;28;20454;-50
2023/10/12 13:59:38;;;;;;;0.08;0.08;;;;;;;15.79;70.08;100990.38;15610826;28;20396;-48
2023/10/12 14:07:12;;;;;;;0.00;0.00;;;;;;;16.04;68.32;100990.09;15609821;28;20565;-48
2023/10/12 14:14:46;;;;;;;0.00;0.00;;;;;;;15.95;68.70;100969.03;15611255;28;20124;-48
2023/10/12 14:22:20;;;;;;;;;;;;;;;16.42;67.35;100968.84;15593114;28;20057;-48
2023/10/12 14:29:53;;;;;;;0.00;0.00;;;;;;;15.82;69.38;100967.44;15611177;28;19928;-51
2023/10/12 14:37:29;;;;;;;3.70;1.13;;;;;;;15.79;70.21;100965.19;15612799;28;20140;-47
2023/10/12 14:45:06;;;;;;;5.70;1.15;;;;;;;15.82;68.94;100973.66;15621572;28;20087;-49
2023/10/12 14:52:40;;;;;;;2.65;0.80;;;;;;;16.35;67.59;100977.13;15620460;28;20057;-50
2023/10/12 15:00:22;;;;;;;0.00;0.00;;;;;;;15.99;69.32;100978.31;15620672;28;20107;-49
2023/10/12 15:07:58;;;;;;;0.20;0.20;;;;;;;16.03;68.15;100974.88;15617961;28;20046;-50
2023/10/12 15:15:35;;;;;;;3.60;0.63;;;;;;;15.92;69.89;100964.91;15619489;28;20045;-49
2023/10/12 15:23:10;;;;;;;2.78;0.73;;;;;;;15.91;67.96;100959.75;15618624;28;20056;-49
2023/10/12 15:30:43;;;;;;;0.32;0.32;;;;;;;15.63;71.03;100966.72;15618414;28;20052;-50
2023/10/12 15:38:18;;;;;;;0.00;0.00;;;;;;;15.46;71.78;100973.91;15619493;28;20049;-51
2023/10/12 15:45:52;;;;;;;0.00;0.00;;;;;;;15.57;71.32;100959.53;15617466;28;20592;-51
2023/10/12 15:53:26;;;;;;;;;;;;;;;15.14;74.25;100968.88;15616034;28;20128;-49
2023/10/12 16:01:03;;;;;;;0.00;0.00;;;;;;;15.32;73.21;100970.63;15617076;28;20020;-48
2023/10/12 16:08:39;;;;;;;0.22;0.22;;;;;;;15.22;73.77;100979.34;15617057;28;20244;-49
2023/10/12 16:16:13;;;;;;;0.22;0.22;;;;;;;15.11;74.08;100980.16;15617239;28;20045;-50
2023/10/12 16:23:47;;;;;;;0.00;0.00;;;;;;;15.32;71.74;100978.75;15615848;28;20179;-50
2023/10/12 16:31:21;;;;;;;0.00;0.00;;;;;;;15.30;72.84;100973.59;15614872;28;20292;-49
2023/10/12 16:38:56;;;;;;;4.85;1.55;;;;;;;15.24;72.04;100976.38;15614533;28;20338;-49
2023/10/12 16:46:32;;;;;;;0.25;0.25;;;;;;;15.21;72.36;100987.69;15615207;28;20049;-50
2023/10/12 16:54:12;;;;;;;1.80;0.35;;;;;;;15.19;72.58;100990.63;15436802;28;20409;-49
2023/10/12 17:01:45;;;;;;;0.35;0.30;;;;;;;15.43;71.27;100996.03;15491890;28;20042;-50
2023/10/12 17:09:20;;;;;;;0.08;0.08;;;;;;;15.47;71.57;101010.72;15491407;28;20178;-52
2023/10/12 17:16:55;;;;;;;0.70;0.47;;;;;;;15.29;71.97;101012.50;15491646;28;20053;-51
2023/10/12 17:24:30;;;;;;;;;;;;;;;15.23;72.11;101012.59;15482061;28;20177;-50
2023/10/12 17:32:04;;;;;;;0.32;0.32;;;;;;;15.35;72.18;101018.84;15490737;28;19976;-49
2023/10/12 17:39:39;;;;;;;0.10;0.10;;;;;;;15.42;72.69;101024.13;15488253;28;20061;-52
2023/10/12 17:47:12;;;;;;;0.00;0.00;;;;;;;14.49;74.89;101006.69;15469655;28;20516;-50
2023/10/12 17:54:47;;;;;;;0.20;0.20;;;;;;;15.12;73.74;101022.38;15478757;28;20064;-50
2023/10/12 18:02:22;;;;;;;0.10;0.10;;;;;;;15.21;73.78;101004.75;15464733;28;20073;-51
2023/10/12 18:09:56;;;;;;;0.00;0.00;;;;;;;15.46;72.06;101001.78;15468847;28;20043;-49
2023/10/12 18:17:31;;;;;;;0.00;0.00;;;;;;;15.52;71.77;101016.25;15486848;28;20050;-49
2023/10/12 18:25:08;;;;;;;6.07;1.42;;;;;;;15.35;72.57;101031.56;15488118;28;20042;-53
2023/10/12 18:32:48;;;;;;;0.15;0.15;;;;;;;15.34;72.54;101033.44;15483757;28;20042;-48
2023/10/12 18:40:22;;;;;;;0.20;0.10;;;;;;;15.26;73.03;101018.38;15482392;28;20124;-50
2023/10/12 18:47:56;;;;;;;0.10;0.10;;;;;;;15.19;73.64;101008.72;15481425;28;20526;-49
2023/10/12 18:55:33;;;;;;;0.00;0.00;;;;;;;15.17;72.86;101011.66;15488119;28;20046;-47
2023/10/12 19:03:06;;;;;;;0.00;0.00;;;;;;;15.04;73.86;100998.38;15488466;28;20053;-49
2023/10/12 19:10:41;;;;;;;0.00;0.00;;;;;;;15.03;73.78;101010.25;15488296;28;20038;-49
2023/10/12 19:18:16;;;;;;;0.22;0.08;;;;;;;15.02;74.43;101008.59;15477115;28;20087;-53
2023/10/12 19:25:55;;;;;;;3.60;1.55;;;;;;;14.55;76.82;101022.00;15486536;28;20046;-49
2023/10/12 19:33:32;;;;;;;0.00;0.00;;;;;;;14.44;75.58;100984.94;15486272;28;20049;-50
2023/10/12 19:41:07;;;;;;;0.00;0.00;;;;;;;14.74;75.06;101025.47;15477136;28;20637;-49
2023/10/12 19:48:44;;;;;;;0.32;0.32;;;;;;;14.32;77.64;101038.91;15498668;23;20058;-54
2023/10/12 19:56:21;;;;;;;0.55;0.30;;;;;;;14.82;75.48;101022.41;15479973;28;20050;-52
2023/10/12 20:03:55;;;;;;;0.00;0.00;;;;;;;14.69;76.45;101030.75;15450502;28;20527;-53
2023/10/12 20:11:33;;;;;;;0.90;0.47;;;;;;;14.63;76.79;101032.47;15442081;28;20097;-52
2023/10/12 20:19:07;;;;;;;0.05;0.05;;;;;;;14.66;76.13;101032.00;15446439;28;20148;-52
2023/10/12 20:26:42;;;;;;;0.00;0.00;;;;;;;14.91;75.35;101041.81;15419576;28;20045;-55
2023/10/12 20:34:19;;;;;;;0.00;0.00;;;;;;;14.66;76.39;101033.91;15451388;28;20054;-56
2023/10/12 20:41:53;;;;;;;0.10;0.10;;;;;;;14.44;77.66;101041.63;15436069;28;20126;-52
2023/10/12 20:49:28;;;;;;;0.00;0.00;;;;;;;15.20;74.36;101037.41;15445454;28;20097;-51
2023/10/12 20:57:05;;;;;;;0.47;0.25;;;;;;;15.23;75.05;101042.34;15454289;28;20125;-52
2023/10/12 21:04:38;;;;;;;0.28;0.28;;;;;;;14.80;76.91;101033.47;15449057;28;20061;-54
2023/10/12 21:12:14;;;;;;;0.03;0.03;;;;;;;15.18;75.26;101036.81;15432250;28;20049;-50
2023/10/12 21:19:53;;;;;;;0.00;0.00;;;;;;;15.30;74.35;101030.38;15442376;28;20039;-53
2023/10/12 21:27:36;;;;;;;0.00;0.00;;;;;;;15.16;74.59;101031.66;15424816;28;20134;-55
2023/10/12 21:35:18;;;;;;;0.00;0.00;;;;;;;15.25;73.87;101027.56;15459250;28;20417;-55
2023/10/12 21:42:53;;;;;;;0.00;0.00;;;;;;;14.95;75.79;101018.69;15481759;28;20408;-51
2023/10/12 21:50:27;;;;;;;0.10;0.10;;;;;;;14.97;75.51;101013.88;15423392;28;20126;-54
2023/10/12 21:58:02;;;;;;;0.00;0.00;;;;;;;14.81;76.61;101012.66;15464842;28;20134;-49
2023/10/12 22:05:35;;;;;;;0.00;0.00;;;;;;;14.34;78.78;101000.84;15438865;28;20039;-53
2023/10/12 22:13:11;;;;;;;0.00;0.00;;;;;;;14.89;76.81;100996.13;15424001;28;20105;-55
2023/10/12 22:20:55;;;;;;;0.00;0.00;;;;;;;14.91;77.18;100994.00;15426015;28;20043;-55
2023/10/12 22:28:35;;;;;;;0.80;0.55;;;;;;;15.12;76.26;100998.03;15424007;28;20254;-58
2023/10/12 22:36:08;;;;;;;0.10;0.10;;;;;;;14.50;79.34;100986.72;15456691;28;20100;-57
2023/10/12 22:43:45;;;;;;;0.17;0.17;;;;;;;14.48;80.01;100991.53;15477646;28;20049;-54
2023/10/12 22:51:21;;;;;;;0.00;0.00;;;;;;;14.51;79.99;100983.00;15427636;28;20050;-57
2023/10/12 22:58:57;;;;;;;0.20;0.20;;;;;;;15.10;77.50;100989.31;15460056;28;20039;-53
2023/10/12 23:06:33;;;;;;;0.20;0.20;;;;;;;14.93;77.08;100991.09;15433587;28;20541;-53
2023/10/12 23:14:11;;;;;;;0.28;0.28;;;;;;;14.71;78.00;100999.72;15433637;28;20114;-55
2023/10/12 23:21:50;;;;;;;0.00;0.00;;;;;;;15.09;76.96;100997.66;15434012;28;20090;-55
2023/10/12 23:29:24;;;;;;;0.00;0.00;;;;;;;14.73;77.93;100994.91;15476722;28;20039;-56
2023/10/12 23:36:59;;;;;;;0.22;0.22;;;;;;;14.94;77.31;100993.53;15493099;28;20129;-55
2023/10/12 23:52:27;;;;;;;0.55;0.47;;;;;;;14.52;79.14;100992.75;15432214;28;20051;-56
